Aviation Digital Data Service (ADDS)

Output produced by METARs form (1606 UTC 03 December 2021)
found at http://www.aviationweather.gov/metar/data/
 
VTBU 031600Z 34006KT 8000 FEW025 23/15 Q1017 NOSIG
VTBU 031530Z 35006KT 8000 FEW025 23/14 Q1017 NOSIG
VTBU 031500Z 35006KT 8000 FEW025 23/15 Q1017 NOSIG
VTBU 031430Z 01006KT 8000 FEW025 23/15 Q1017 NOSIG
VTBU 031400Z 36006KT 8000 FEW025 22/18 Q1016 NOSIG
VTBU 031330Z 36006KT 8000 FEW025 22/17 Q1016 NOSIG
VTBU 031300Z 01005KT 8000 FEW025 23/17 Q1016 NOSIG
VTBU 031230Z 01005KT 8000 FEW025 23/16 Q1015 NOSIG
VTBU 031200Z 03006KT 9000 FEW025 25/15 Q1015 NOSIG
VTBU 031130Z 02007KT 9000 FEW025 26/15 Q1014 NOSIG
VTBU 031100Z 03006KT 9999 FEW025 26/15 Q1014 NOSIG
VTBU 031030Z 03007KT 9999 FEW025 27/15 Q1013 NOSIG
VTBU 031000Z 03007KT 9999 FEW025 28/15 Q1013 NOSIG
VTBU 030930Z 01010KT 9999 FEW025 29/15 Q1012 NOSIG
VTBU 030900Z 01009KT 9999 FEW025 30/15 Q1012 NOSIG
VTBU 030830Z 01009KT 9999 FEW025 30/16 Q1012 NOSIG
VTBU 030800Z 36010KT 9999 FEW025 30/16 Q1012 NOSIG
VTBU 030730Z 02007KT 9999 FEW025 30/16 Q1013 NOSIG
VTBU 030700Z 36010KT 9999 FEW025 29/16 Q1013 NOSIG
VTBU 030630Z 02010KT 9999 FEW025 29/16 Q1013 NOSIG
VTBU 030600Z 04007KT 360V090 9999 FEW025 29/17 Q1014 NOSIG
VTBU 030530Z 02009KT 340V110 9999 FEW025 30/17 Q1015 NOSIG
VTBU 030500Z 02009KT 350V060 9999 FEW025 29/16 Q1015 NOSIG
VTBU 030430Z 04009KT 9999 FEW025 28/17 Q1016 NOSIG
VTBU 030400Z 02012KT 9999 FEW025 28/16 Q1016 NOSIG
VTBU 030330Z 02010KT 9999 FEW025 27/16 Q1017 NOSIG
VTBU 030300Z 01013KT 9000 FEW025 26/16 Q1017 NOSIG
VTBU 030230Z 01010KT 9000 FEW025 25/16 Q1017 NOSIG
VTBU 030200Z 02009KT 9000 FEW025 25/17 Q1017 NOSIG
VTBU 030130Z 01009KT 9000 FEW025 23/17 Q1016 NOSIG
VTBU 030100Z 01006KT 9000 FEW025 22/17 Q1016 NOSIG
VTBU 030030Z 36005KT 8000 FEW025 22/17 Q1015 NOSIG
VTBU 030000Z 02003KT 8000 FEW025 21/17 Q1015 NOSIG
VTBU 022330Z 01007KT 8000 FEW025 22/16 Q1015 NOSIG
VTBU 022300Z 02008KT 8000 FEW025 22/16 Q1014 NOSIG
VTBU 022230Z 02008KT 360V060 8000 FEW025 SCT100 23/16 Q1014 NOSIG
VTBU 022200Z 01005KT 8000 FEW025 SCT100 22/16 Q1014 NOSIG
VTBU 022130Z 36008KT 8000 FEW025 SCT100 23/17 Q1014 NOSIG
VTBU 022100Z 36007KT 8000 FEW025 23/17 Q1014 NOSIG
VTBU 022030Z 35007KT 8000 FEW025 24/17 Q1014 NOSIG
VTBU 022000Z 35007KT 8000 FEW025 24/17 Q1014 NOSIG
VTBU 021930Z 35006KT 8000 FEW025 24/17 Q1014 NOSIG
VTBU 021900Z 34005KT 8000 FEW025 24/17 Q1014 NOSIG
VTBU 021830Z 34006KT 8000 FEW025 24/18 Q1014 NOSIG
VTBU 021800Z 36005KT 8000 FEW025 24/18 Q1014 NOSIG
VTBU 021730Z 35004KT 8000 FEW025 SCT100 24/18 Q1015 NOSIG
VTBU 021700Z 36005KT 8000 FEW025 SCT100 24/19 Q1015 NOSIG
VTBU 021630Z 36007KT 8000 FEW025 SCT100 24/18 Q1015 NOSIG
VTBU 021600Z 36007KT 8000 FEW025 SCT100 25/19 Q1015 NOSIG
VTBU 021530Z 01004KT 8000 FEW025 SCT100 25/19 Q1015 NOSIG
TAF VTBU 031100Z 0312/0412 01006KT 8000 FEW025